createdAt,value
2018-12-19T00:00:46.617Z,99182.19
2018-12-19T00:03:14.514Z,99183.96
2018-12-19T00:05:42.423Z,99182.20
2018-12-19T00:08:12.128Z,99176.50
2018-12-19T00:10:40.601Z,99176.74
2018-12-19T00:13:10.468Z,99188.44
2018-12-19T00:15:38.560Z,99190.04
2018-12-19T00:18:06.189Z,99186.20
2018-12-19T00:20:34.202Z,99184.92
2018-12-19T00:23:02.706Z,99179.80
2018-12-19T00:25:30.667Z,99180.02
2018-12-19T00:27:58.219Z,99170.63
2018-12-19T00:30:26.112Z,99170.50
2018-12-19T00:32:55.411Z,99173.64
2018-12-19T00:35:25.171Z,99173.17
2018-12-19T00:37:53.941Z,99170.39
2018-12-19T00:40:21.913Z,99165.81
2018-12-19T00:42:49.644Z,99171.00
2018-12-19T00:45:17.515Z,99166.64
2018-12-19T00:47:45.231Z,99165.81
2018-12-19T00:50:13.855Z,99165.81
2018-12-19T00:52:41.713Z,99168.39
2018-12-19T00:55:11.759Z,99174.45
2018-12-19T00:57:39.372Z,99164.95
2018-12-19T01:00:08.075Z,99175.19
2018-12-19T01:02:36.539Z,99176.43
2018-12-19T01:05:05.332Z,99173.45
2018-12-19T01:07:32.987Z,99180.98
2018-12-19T01:10:00.891Z,99175.80
2018-12-19T01:12:28.512Z,99171.75
2018-12-19T01:14:56.445Z,99168.74
2018-12-19T01:17:24.414Z,99165.11
2018-12-19T01:19:52.130Z,99170.16
2018-12-19T01:22:19.935Z,99169.42
2018-12-19T01:24:50.605Z,99169.49
2018-12-19T01:27:18.223Z,99174.94
2018-12-19T01:29:47.189Z,99178.10
2018-12-19T01:32:15.083Z,99186.57
2018-12-19T01:34:43.030Z,99186.32
2018-12-19T01:37:10.688Z,99177.75
2018-12-19T01:39:38.522Z,99182.43
2018-12-19T01:42:06.472Z,99181.44
2018-12-19T01:44:34.515Z,99186.11
2018-12-19T01:47:02.545Z,99183.92
2018-12-19T01:49:30.576Z,99188.76
2018-12-19T01:51:58.785Z,99188.25
2018-12-19T01:54:26.740Z,99183.30
2018-12-19T01:56:54.358Z,99182.16
2018-12-19T01:59:22.664Z,99185.27
2018-12-19T02:01:50.414Z,99176.56
2018-12-19T02:04:18.315Z,99173.32
2018-12-19T02:06:46.279Z,99178.00
2018-12-19T02:09:15.111Z,99177.22
2018-12-19T02:11:42.776Z,99177.08
2018-12-19T02:14:10.674Z,99182.16
2018-12-19T02:16:38.731Z,99184.59
2018-12-19T02:19:07.087Z,99189.49
2018-12-19T02:21:34.780Z,99180.02
2018-12-19T02:24:03.151Z,99170.89
2018-12-19T02:26:30.721Z,99179.45
2018-12-19T02:28:58.287Z,99178.00
2018-12-19T02:31:25.810Z,99179.67
2018-12-19T02:33:53.351Z,99177.84
2018-12-19T02:36:20.877Z,99183.00
2018-12-19T02:38:48.426Z,99178.27
2018-12-19T02:41:15.941Z,99175.09
2018-12-19T02:43:43.487Z,99168.23
2018-12-19T02:46:11.008Z,99170.53
2018-12-19T02:48:38.557Z,99169.42
2018-12-19T02:51:06.076Z,99170.47
2018-12-19T02:53:33.620Z,99172.55
2018-12-19T02:56:01.130Z,99165.58
2018-12-19T02:58:28.674Z,99165.12
2018-12-19T03:00:56.195Z,99169.74
2018-12-19T03:03:23.728Z,99168.95
2018-12-19T03:05:51.237Z,99172.96
2018-12-19T03:08:18.735Z,99178.88
2018-12-19T03:10:46.675Z,99168.55
2018-12-19T03:13:14.190Z,99170.16
2018-12-19T03:15:41.775Z,99165.44
2018-12-19T03:18:09.293Z,99167.04
2018-12-19T03:20:36.845Z,99159.09
2018-12-19T03:23:04.566Z,99156.86
2018-12-19T03:25:32.100Z,99154.16
2018-12-19T03:27:59.661Z,99148.06
2018-12-19T03:30:27.211Z,99154.21
2018-12-19T03:32:54.740Z,99151.78
2018-12-19T03:35:22.296Z,99142.31
2018-12-19T03:37:49.938Z,99141.73
2018-12-19T03:40:17.483Z,99142.98
2018-12-19T03:42:45.007Z,99140.91
2018-12-19T03:45:12.569Z,99135.03
2018-12-19T03:47:40.318Z,99139.81
2018-12-19T03:50:08.058Z,99131.07
2018-12-19T03:52:35.568Z,99130.05
2018-12-19T03:55:03.399Z,99131.56
2018-12-19T03:57:31.436Z,99128.59
2018-12-19T03:59:59.115Z,99124.27
2018-12-19T04:02:26.652Z,99122.13
2018-12-19T04:04:54.202Z,99117.08
2018-12-19T04:07:21.748Z,99115.48
2018-12-19T04:09:49.265Z,99119.33
2018-12-19T04:12:16.806Z,99118.58
2018-12-19T04:14:44.308Z,99112.86
2018-12-19T04:17:11.853Z,99112.20
2018-12-19T04:19:39.363Z,99109.67
2018-12-19T04:22:06.898Z,99107.73
2018-12-19T04:24:34.403Z,99099.45
2018-12-19T04:27:01.934Z,99098.69
2018-12-19T04:29:29.544Z,99099.34
2018-12-19T04:31:57.068Z,99100.42
2018-12-19T04:34:24.578Z,99098.23
2018-12-19T04:36:52.095Z,99093.73
2018-12-19T04:39:19.611Z,99096.56
2018-12-19T04:41:47.151Z,99101.02
2018-12-19T04:44:14.684Z,99102.41
2018-12-19T04:46:42.315Z,99111.64
2018-12-19T04:49:09.823Z,99110.62
2018-12-19T04:51:37.383Z,99098.26
2018-12-19T04:54:04.884Z,99103.71
2018-12-19T04:56:32.429Z,99105.41
2018-12-19T04:58:59.943Z,99112.80
2018-12-19T05:01:27.467Z,99111.66
2018-12-19T05:03:54.973Z,99117.31
2018-12-19T05:06:22.515Z,99114.55
2018-12-19T05:08:50.023Z,99109.92
2018-12-19T05:11:17.562Z,99111.86
2018-12-19T05:13:45.066Z,99115.74
2018-12-19T05:16:12.604Z,99122.89
2018-12-19T05:18:40.113Z,99126.27
2018-12-19T05:21:07.640Z,99122.75
2018-12-19T05:23:35.256Z,99120.78
2018-12-19T05:26:02.792Z,99125.56
2018-12-19T05:28:30.315Z,99120.05
2018-12-19T05:30:57.879Z,99117.84
2018-12-19T05:33:25.517Z,99125.95
2018-12-19T05:35:53.023Z,99135.71
2018-12-19T05:38:20.567Z,99127.76
2018-12-19T05:40:48.063Z,99132.50
2018-12-19T05:43:15.592Z,99131.09
2018-12-19T05:45:43.094Z,99140.72
2018-12-19T05:48:10.619Z,99139.25
2018-12-19T05:50:38.124Z,99144.62
2018-12-19T05:53:05.650Z,99142.38
2018-12-19T05:55:33.162Z,99144.31
2018-12-19T05:58:00.706Z,99148.06
2018-12-19T06:00:28.257Z,99151.00
2018-12-19T06:02:55.883Z,99153.53
2018-12-19T06:05:23.393Z,99153.94
2018-12-19T06:07:51.007Z,99157.23
2018-12-19T06:10:18.563Z,99164.92
2018-12-19T06:12:46.101Z,99169.80
2018-12-19T06:15:13.640Z,99167.45
2018-12-19T06:17:41.205Z,99162.61
2018-12-19T06:20:08.709Z,99162.61
2018-12-19T06:22:36.247Z,99159.10
2018-12-19T06:25:03.753Z,99163.02
2018-12-19T06:27:31.300Z,99159.94
2018-12-19T06:29:58.801Z,99168.52
2018-12-19T06:32:26.327Z,99172.77
2018-12-19T06:34:54.954Z,99166.25
2018-12-19T06:37:22.612Z,99172.63
2018-12-19T06:39:50.167Z,99170.02
2018-12-19T06:42:17.706Z,99170.71
2018-12-19T06:44:45.348Z,99165.80
2018-12-19T06:47:12.941Z,99179.16
2018-12-19T06:49:40.450Z,99176.02
2018-12-19T06:52:08.056Z,99173.34
2018-12-19T06:54:35.569Z,99171.97
2018-12-19T06:57:03.218Z,99181.78
2018-12-19T06:59:30.720Z,99182.19
2018-12-19T07:01:58.298Z,99179.25
2018-12-19T07:04:25.898Z,99179.44
2018-12-19T07:06:53.444Z,99180.34
2018-12-19T07:09:21.069Z,99183.58
2018-12-19T07:11:48.583Z,99189.27
2018-12-19T07:14:16.113Z,99194.48
2018-12-19T07:16:43.728Z,99195.31
2018-12-19T07:19:11.292Z,99193.87
2018-12-19T07:21:38.800Z,99196.95
2018-12-19T07:24:06.348Z,99191.33
2018-12-19T07:26:33.868Z,99196.08
2018-12-19T07:29:01.435Z,99193.17
2018-12-19T07:31:28.950Z,99190.96
2018-12-19T07:33:56.483Z,99201.48
2018-12-19T07:36:23.984Z,99203.77
2018-12-19T07:38:51.543Z,99202.45
2018-12-19T07:41:19.064Z,99217.74
2018-12-19T07:43:46.605Z,99210.21
2018-12-19T07:46:19.701Z,99209.61
2018-12-19T07:48:43.779Z,99211.45
2018-12-19T07:51:11.291Z,99213.91
2018-12-19T07:53:38.834Z,99214.94
2018-12-19T07:56:06.548Z,99204.87
2018-12-19T07:58:34.095Z,99207.18
2018-12-19T08:01:01.590Z,99203.70
2018-12-19T08:03:29.127Z,99206.17
2018-12-19T08:05:56.638Z,99206.97
2018-12-19T08:08:24.186Z,99197.36
2018-12-19T08:10:52.322Z,99207.62
2018-12-19T08:13:20.159Z,99197.04
2018-12-19T08:15:47.664Z,99200.19
2018-12-19T08:18:15.199Z,99203.67
2018-12-19T08:20:42.776Z,99210.95
2018-12-19T08:23:10.491Z,99214.05
2018-12-19T08:25:38.059Z,99212.81
2018-12-19T08:28:05.604Z,99216.41
2018-12-19T08:30:33.119Z,99212.89
2018-12-19T08:33:00.659Z,99209.30
2018-12-19T08:35:28.173Z,99213.58
2018-12-19T08:37:55.723Z,99215.90
2018-12-19T08:40:23.240Z,99215.35
2018-12-19T08:42:50.787Z,99216.08
2018-12-19T08:45:18.381Z,99214.98
2018-12-19T08:47:45.881Z,99216.30
2018-12-19T08:50:13.417Z,99211.54
2018-12-19T08:52:40.927Z,99216.61
2018-12-19T08:55:08.563Z,99219.59
2018-12-19T08:57:36.101Z,99219.59
2018-12-19T09:00:05.655Z,99220.38
2018-12-19T09:02:33.161Z,99230.56
2018-12-19T09:05:00.699Z,99237.49
2018-12-19T09:07:28.407Z,99234.74
2018-12-19T09:09:56.054Z,99240.95
2018-12-19T09:12:23.576Z,99243.88
2018-12-19T09:14:51.116Z,99233.95
2018-12-19T09:17:18.933Z,99233.58
2018-12-19T09:19:47.339Z,99233.80
2018-12-19T09:22:15.385Z,99232.28
2018-12-19T09:24:42.949Z,99228.22
2018-12-19T09:27:10.451Z,99228.04
2018-12-19T09:29:37.984Z,99232.82
2018-12-19T09:32:05.496Z,99232.75
2018-12-19T09:34:33.036Z,99234.34
2018-12-19T09:37:00.544Z,99237.58
2018-12-19T09:39:28.074Z,99234.05
2018-12-19T09:41:58.173Z,99237.86
2018-12-19T09:44:25.783Z,99239.02
2018-12-19T09:46:53.302Z,99240.50
2018-12-19T09:49:20.830Z,99239.87
2018-12-19T09:51:48.332Z,99243.62
2018-12-19T09:54:15.872Z,99238.31
2018-12-19T09:56:43.498Z,99228.12
2018-12-19T09:59:11.056Z,99233.78
2018-12-19T10:01:38.566Z,99226.36
2018-12-19T10:04:06.099Z,99236.71
2018-12-19T10:06:33.606Z,99232.02
2018-12-19T10:09:01.139Z,99226.77
2018-12-19T10:11:28.686Z,99223.84
2018-12-19T10:13:56.256Z,99225.59
2018-12-19T10:16:23.771Z,99226.47
2018-12-19T10:18:51.301Z,99219.38
2018-12-19T10:21:18.812Z,99223.97
2018-12-19T10:23:46.336Z,99219.41
2018-12-19T10:26:13.849Z,99218.36
2018-12-19T10:28:41.404Z,99220.32
2018-12-19T10:31:09.016Z,99220.68
2018-12-19T10:33:36.533Z,99216.56
2018-12-19T10:36:04.069Z,99221.74
2018-12-19T10:38:31.601Z,99212.98
2018-12-19T10:41:01.923Z,99211.20
2018-12-19T10:43:30.347Z,99208.30
2018-12-19T10:45:58.163Z,99207.00
2018-12-19T10:48:26.011Z,99207.45
2018-12-19T10:50:53.590Z,99203.28
2018-12-19T10:53:21.909Z,99203.16
2018-12-19T10:55:49.764Z,99196.88
2018-12-19T10:58:17.541Z,99198.77
2018-12-19T11:00:50.718Z,99192.28
2018-12-19T11:03:19.292Z,99193.20
2018-12-19T11:05:47.018Z,99193.53
2018-12-19T11:08:15.031Z,99193.91
2018-12-19T11:10:42.643Z,99183.13
2018-12-19T11:13:11.129Z,99188.19
2018-12-19T11:15:38.829Z,99183.34
2018-12-19T11:18:07.688Z,99175.69
2018-12-19T11:20:36.070Z,99177.25
2018-12-19T11:23:03.699Z,99183.59
2018-12-19T11:25:31.845Z,99168.65
2018-12-19T11:27:59.721Z,99164.72
2018-12-19T11:30:27.275Z,99163.33
2018-12-19T11:32:54.780Z,99161.72
2018-12-19T11:35:22.375Z,99165.28
2018-12-19T11:37:50.079Z,99158.27
2018-12-19T11:40:17.833Z,99152.47
2018-12-19T11:42:45.862Z,99152.13
2018-12-19T11:45:13.911Z,99150.58
2018-12-19T11:47:41.458Z,99148.55
2018-12-19T11:50:10.165Z,99140.11
2018-12-19T11:52:37.822Z,99136.10
2018-12-19T11:55:05.860Z,99135.62
2018-12-19T11:57:34.476Z,99138.24
2018-12-19T12:00:02.628Z,99140.84
2018-12-19T12:02:32.962Z,99137.75
2018-12-19T12:05:03.867Z,99134.56
2018-12-19T12:07:32.706Z,99137.65
2018-12-19T12:10:00.950Z,99136.98
2018-12-19T12:12:30.724Z,99132.81
2018-12-19T12:14:58.731Z,99126.70
2018-12-19T12:17:26.982Z,99126.35
2018-12-19T12:19:55.039Z,99117.94
2018-12-19T12:22:23.131Z,99123.56
2018-12-19T12:24:51.251Z,99122.13
2018-12-19T12:27:19.499Z,99114.67
2018-12-19T12:29:49.780Z,99116.45
2018-12-19T12:32:18.972Z,99111.36
2018-12-19T12:34:47.845Z,99101.46
2018-12-19T12:37:16.078Z,99107.27
2018-12-19T12:39:44.767Z,99103.69
2018-12-19T12:42:12.860Z,99095.27
2018-12-19T12:44:40.898Z,99090.20
2018-12-19T12:47:08.480Z,99095.27
2018-12-19T12:49:36.457Z,99088.50
2018-12-19T12:52:05.268Z,99088.90
2018-12-19T12:54:32.990Z,99082.74
2018-12-19T12:57:01.007Z,99083.66
2018-12-19T12:59:28.567Z,99087.23
2018-12-19T13:01:56.645Z,99080.95
2018-12-19T13:04:24.522Z,99087.80
2018-12-19T13:06:52.606Z,99086.48
2018-12-19T13:09:20.340Z,99090.52
2018-12-19T13:11:48.294Z,99082.74
2018-12-19T13:14:15.932Z,99074.50
2018-12-19T13:16:43.950Z,99071.53
2018-12-19T13:19:14.702Z,99063.50
2018-12-19T13:21:52.177Z,99066.59
2018-12-19T13:24:22.561Z,99065.09
2018-12-19T13:26:50.466Z,99055.81
2018-12-19T13:29:18.733Z,99048.83
2018-12-19T13:31:46.995Z,99039.84
2018-12-19T13:34:18.465Z,99034.33
2018-12-19T13:36:47.346Z,99024.41
2018-12-19T13:39:16.126Z,99014.01
2018-12-19T13:41:44.718Z,99012.98
2018-12-19T13:44:13.205Z,99003.45
2018-12-19T13:46:41.321Z,98994.86
2018-12-19T13:49:10.029Z,98994.75
2018-12-19T13:51:37.623Z,98991.85
2018-12-19T13:54:05.931Z,98997.27
2018-12-19T13:56:35.421Z,99012.81
2018-12-19T13:59:03.785Z,99016.53
2018-12-19T14:01:33.256Z,99027.75
2018-12-19T14:04:00.880Z,99045.73
2018-12-19T14:06:31.591Z,99052.63
2018-12-19T14:09:01.387Z,99054.95
2018-12-19T14:11:30.772Z,99059.70
2018-12-19T14:13:58.572Z,99072.80
2018-12-19T14:16:26.927Z,99065.89
2018-12-19T14:18:54.801Z,99060.92
2018-12-19T14:21:22.698Z,99060.66
2018-12-19T14:23:50.425Z,99055.03
2018-12-19T14:26:21.070Z,99049.05
2018-12-19T14:28:50.360Z,99050.75
2018-12-19T14:31:22.202Z,99049.70
2018-12-19T14:33:50.477Z,99058.00
2018-12-19T14:36:19.931Z,99058.95
2018-12-19T14:38:47.675Z,99054.38
2018-12-19T14:41:16.614Z,99045.86
2018-12-19T14:43:44.148Z,99045.56
2018-12-19T14:46:11.657Z,99044.73
2018-12-19T14:48:39.190Z,99049.58
2018-12-19T14:51:06.791Z,99050.41
2018-12-19T14:53:34.440Z,99056.77
2018-12-19T14:56:01.969Z,99053.76
2018-12-19T14:58:29.495Z,99050.09
2018-12-19T15:00:57.054Z,99049.66
2018-12-19T15:03:24.555Z,99044.86
2018-12-19T15:05:52.083Z,99051.22
2018-12-19T15:08:19.594Z,99049.52
2018-12-19T15:10:47.133Z,99059.33
2018-12-19T15:13:14.635Z,99060.86
2018-12-19T15:15:44.180Z,99064.34
2018-12-19T15:18:11.695Z,99059.38
2018-12-19T15:20:39.222Z,99048.55
2018-12-19T15:23:06.798Z,99040.13
2018-12-19T15:25:34.386Z,99046.20
2018-12-19T15:28:02.049Z,99051.20
2018-12-19T15:30:29.735Z,99046.92
2018-12-19T15:32:57.245Z,99039.08
2018-12-19T15:35:24.794Z,99048.59
2018-12-19T15:37:52.304Z,99050.80
2018-12-19T15:40:19.858Z,99057.73
2018-12-19T15:42:47.379Z,99056.73
2018-12-19T15:45:14.933Z,99058.95
2018-12-19T15:47:42.452Z,99061.56
2018-12-19T15:50:10.008Z,99058.48
2018-12-19T15:52:37.530Z,99060.26
2018-12-19T15:55:05.070Z,99063.79
2018-12-19T15:57:32.574Z,99067.19
2018-12-19T16:00:00.105Z,99070.72
2018-12-19T16:02:27.616Z,99066.23
2018-12-19T16:04:55.155Z,99065.48
2018-12-19T16:07:22.670Z,99062.95
2018-12-19T16:09:50.211Z,99061.17
2018-12-19T16:12:17.725Z,99051.75
2018-12-19T16:14:45.304Z,99051.44
2018-12-19T16:17:12.819Z,99066.30
2018-12-19T16:19:40.384Z,99065.83
2018-12-19T16:22:07.912Z,99060.16
2018-12-19T16:24:35.452Z,99062.13
2018-12-19T16:27:02.974Z,99059.12
2018-12-19T16:29:30.558Z,99064.74
2018-12-19T16:31:58.280Z,99063.52
2018-12-19T16:34:25.851Z,99061.55
2018-12-19T16:36:53.462Z,99060.23
2018-12-19T16:39:20.979Z,99066.00
2018-12-19T16:41:48.550Z,99067.78
2018-12-19T16:44:16.396Z,99070.39
2018-12-19T16:46:45.397Z,99071.95
2018-12-19T16:49:13.079Z,99069.50
2018-12-19T16:51:41.183Z,99064.19
2018-12-19T16:54:09.077Z,99064.11
2018-12-19T16:56:37.046Z,99063.19
2018-12-19T16:59:04.931Z,99069.06
2018-12-19T17:01:34.563Z,99063.36
2018-12-19T17:04:02.188Z,99058.77
2018-12-19T17:06:31.593Z,99059.23
2018-12-19T17:08:59.171Z,99061.86
2018-12-19T17:11:27.407Z,99064.83
2018-12-19T17:13:56.216Z,99065.58
2018-12-19T17:16:24.468Z,99063.91
2018-12-19T17:18:52.149Z,99062.10
2018-12-19T17:23:56.306Z,99060.56
2018-12-19T17:26:24.043Z,99064.57
2018-12-19T17:28:55.340Z,99066.83
2018-12-19T17:31:22.978Z,99060.73
2018-12-19T17:33:51.730Z,99056.73
2018-12-19T17:36:22.046Z,99055.63
2018-12-19T17:38:49.972Z,99046.83
2018-12-19T17:41:18.303Z,99051.14
2018-12-19T17:43:46.233Z,99057.28
2018-12-19T17:46:14.079Z,99058.59
2018-12-19T17:48:42.027Z,99057.95
2018-12-19T17:51:10.865Z,99063.41
2018-12-19T17:53:42.788Z,99054.26
2018-12-19T17:56:12.805Z,99062.94
2018-12-19T17:58:40.874Z,99066.08
2018-12-19T18:01:09.101Z,99067.55
2018-12-19T18:03:36.785Z,99063.58
2018-12-19T18:06:04.743Z,99060.30
2018-12-19T18:08:32.700Z,99062.52
2018-12-19T18:11:00.716Z,99066.77
2018-12-19T18:13:28.459Z,99065.58
2018-12-19T18:15:56.260Z,99066.64
2018-12-19T18:18:23.827Z,99061.86
2018-12-19T18:20:51.494Z,99067.41
2018-12-19T18:23:19.616Z,99065.30
2018-12-19T18:25:49.081Z,99068.64
2018-12-19T18:28:16.909Z,99072.50
2018-12-19T18:30:44.577Z,99066.86
2018-12-19T18:33:12.352Z,99071.05
2018-12-19T18:35:40.828Z,99076.27
2018-12-19T18:38:08.724Z,99074.13
2018-12-19T18:40:36.307Z,99072.11
2018-12-19T18:43:04.602Z,99073.98
2018-12-19T18:45:32.440Z,99075.59
2018-12-19T18:48:00.486Z,99081.69
2018-12-19T18:50:29.709Z,99081.33
2018-12-19T18:52:57.878Z,99077.48
2018-12-19T18:55:25.681Z,99075.09
2018-12-19T18:57:53.770Z,99074.06
2018-12-19T19:00:27.383Z,99075.70
2018-12-19T19:02:55.020Z,99073.78
2018-12-19T19:05:23.279Z,99073.42
2018-12-19T19:07:51.025Z,99078.29
2018-12-19T19:10:19.295Z,99079.79
2018-12-19T19:12:47.299Z,99078.77
2018-12-19T19:15:14.836Z,99081.88
2018-12-19T19:17:42.383Z,99078.96
2018-12-19T19:20:09.891Z,99077.73
2018-12-19T19:22:37.427Z,99086.05
2018-12-19T19:25:05.484Z,99079.81
2018-12-19T19:27:33.518Z,99075.00
2018-12-19T19:30:01.112Z,99080.70
2018-12-19T19:32:28.634Z,99072.70
2018-12-19T19:34:56.180Z,99067.83
2018-12-19T19:37:23.687Z,99067.62
2018-12-19T19:39:51.787Z,99063.40
2018-12-19T19:42:20.210Z,99016.91
2018-12-19T19:44:48.149Z,99066.62
2018-12-19T19:47:18.237Z,99062.97
2018-12-19T19:49:45.824Z,99058.77
2018-12-19T19:52:13.343Z,99060.52
2018-12-19T19:54:41.278Z,99063.49
2018-12-19T19:57:09.960Z,99063.49
2018-12-19T19:59:37.491Z,99066.42
2018-12-19T20:02:05.235Z,99069.44
2018-12-19T20:04:32.794Z,99069.39
2018-12-19T20:07:01.193Z,99065.23
2018-12-19T20:09:29.072Z,99068.69
2018-12-19T20:11:56.605Z,99061.16
2018-12-19T20:14:24.139Z,99054.63
2018-12-19T20:16:57.289Z,99063.69
2018-12-19T20:19:24.865Z,99061.68
2018-12-19T20:21:52.456Z,99066.16
2018-12-19T20:24:20.115Z,99068.13
2018-12-19T20:26:47.705Z,99069.28
2018-12-19T20:29:26.426Z,99067.69
2018-12-19T20:31:54.094Z,99060.30
2018-12-19T20:34:21.635Z,99064.48
2018-12-19T20:36:49.138Z,99065.40
2018-12-19T20:39:16.698Z,99060.22
2018-12-19T20:41:44.397Z,99064.69
2018-12-19T20:44:11.949Z,99062.74
2018-12-19T20:46:39.473Z,99062.66
2018-12-19T20:49:07.063Z,99064.80
2018-12-19T20:51:34.676Z,99074.70
2018-12-19T20:54:02.232Z,99070.94
2018-12-19T20:56:29.781Z,99067.89
2018-12-19T20:58:57.324Z,99065.67
2018-12-19T21:01:24.988Z,99068.20
2018-12-19T21:03:52.511Z,99067.28
2018-12-19T21:06:20.093Z,99061.98
2018-12-19T21:08:47.620Z,99061.86
2018-12-19T21:11:15.160Z,99062.06
2018-12-19T21:13:46.787Z,99060.86
2018-12-19T21:16:12.246Z,99062.56
2018-12-19T21:18:42.625Z,99064.23
2018-12-19T21:21:10.340Z,99064.16
2018-12-19T21:23:37.878Z,99068.55
2018-12-19T21:26:05.475Z,99065.66
2018-12-19T21:28:33.007Z,99071.02
2018-12-19T21:31:00.583Z,99065.80
2018-12-19T21:33:28.091Z,99072.55
2018-12-19T21:35:55.665Z,99076.39
2018-12-19T21:38:23.195Z,99071.25
2018-12-19T21:40:50.782Z,99071.46
2018-12-19T21:43:18.654Z,99076.84
2018-12-19T21:45:51.714Z,99070.94
2018-12-19T21:48:17.727Z,99064.80
2018-12-19T21:50:46.938Z,99070.25
2018-12-19T21:53:14.591Z,99075.17
2018-12-19T21:55:42.904Z,99072.56
2018-12-19T21:58:11.157Z,99073.48
2018-12-19T22:00:41.666Z,99071.81
2018-12-19T22:03:10.647Z,99071.58
2018-12-19T22:05:38.373Z,99070.95
2018-12-19T22:08:06.035Z,99073.35
2018-12-19T22:10:33.604Z,99067.28
2018-12-19T22:13:01.339Z,99065.76
2018-12-19T22:15:28.859Z,99073.58
2018-12-19T22:18:02.003Z,99074.13
2018-12-19T22:20:29.567Z,99075.10
2018-12-19T22:22:58.075Z,99074.34
2018-12-19T22:25:26.298Z,99083.26
2018-12-19T22:27:54.100Z,99085.71
2018-12-19T22:30:21.619Z,99081.77
2018-12-19T22:32:49.200Z,99080.86
2018-12-19T22:35:16.807Z,99071.34
2018-12-19T22:37:45.483Z,99067.42
2018-12-19T22:40:13.272Z,99067.82
2018-12-19T22:42:42.589Z,99069.73
2018-12-19T22:45:10.510Z,99076.73
2018-12-19T22:47:38.249Z,99073.33
2018-12-19T22:50:06.292Z,99079.23
2018-12-19T22:52:34.113Z,99071.66
2018-12-19T22:55:01.955Z,99070.29
2018-12-19T22:57:29.717Z,99078.65
2018-12-19T23:00:01.050Z,99077.79
2018-12-19T23:02:35.924Z,99084.31
2018-12-19T23:05:05.126Z,99079.41
2018-12-19T23:07:33.639Z,99081.23
2018-12-19T23:10:01.498Z,99082.86
2018-12-19T23:12:29.259Z,99078.55
2018-12-19T23:14:57.835Z,99079.02
2018-12-19T23:17:31.060Z,99076.63
2018-12-19T23:19:59.125Z,99076.95
2018-12-19T23:22:28.612Z,99078.25
2018-12-19T23:24:57.970Z,99075.80
2018-12-19T23:27:29.121Z,99072.20
2018-12-19T23:29:57.084Z,99068.36
2018-12-19T23:32:31.441Z,99063.00
2018-12-19T23:35:00.205Z,99070.58
2018-12-19T23:37:28.254Z,99066.73
2018-12-19T23:39:56.874Z,99067.42
2018-12-19T23:42:25.034Z,99056.63
2018-12-19T23:44:52.735Z,99060.83
2018-12-19T23:47:20.826Z,99058.37
2018-12-19T23:49:48.690Z,99059.78
2018-12-19T23:52:16.478Z,99055.00
2018-12-19T23:54:44.576Z,99059.13
2018-12-19T23:57:12.167Z,99060.84
2018-12-19T23:59:39.741Z,99055.55
